sensor_id;sensor_type;location;lat;lon;timestamp;pressure;altitude;pressure_sealevel;temperature
69435;BMP180;56625;54.322;18.582;2024-02-26T00:02:28;99915.00;;;3.64
69435;BMP180;56625;54.322;18.582;2024-02-26T00:04:57;99908.80;;;3.70
69435;BMP180;56625;54.322;18.582;2024-02-26T00:07:25;99908.60;;;3.70
69435;BMP180;56625;54.322;18.582;2024-02-26T00:09:53;99912.60;;;3.80
69435;BMP180;56625;54.322;18.582;2024-02-26T00:12:21;99915.20;;;3.80
69435;BMP180;56625;54.322;18.582;2024-02-26T00:14:50;99915.20;;;3.80
69435;BMP180;56625;54.322;18.582;2024-02-26T00:17:18;99914.20;;;3.80
69435;BMP180;56625;54.322;18.582;2024-02-26T00:19:46;99905.80;;;3.86
69435;BMP180;56625;54.322;18.582;2024-02-26T00:22:15;99910.20;;;3.90
69435;BMP180;56625;54.322;18.582;2024-02-26T00:24:43;99907.60;;;3.92
69435;BMP180;56625;54.322;18.582;2024-02-26T00:27:11;99901.40;;;3.98
69435;BMP180;56625;54.322;18.582;2024-02-26T00:29:40;99905.60;;;4.00
69435;BMP180;56625;54.322;18.582;2024-02-26T00:32:08;99902.20;;;4.00
69435;BMP180;56625;54.322;18.582;2024-02-26T00:34:36;99900.00;;;4.00
69435;BMP180;56625;54.322;18.582;2024-02-26T00:37:05;99894.00;;;4.00
69435;BMP180;56625;54.322;18.582;2024-02-26T00:39:34;99903.00;;;4.00
69435;BMP180;56625;54.322;18.582;2024-02-26T00:42:02;99904.00;;;4.06
69435;BMP180;56625;54.322;18.582;2024-02-26T00:44:31;99902.40;;;4.10
69435;BMP180;56625;54.322;18.582;2024-02-26T00:47:00;99898.00;;;4.10
69435;BMP180;56625;54.322;18.582;2024-02-26T00:49:28;99896.80;;;4.00
69435;BMP180;56625;54.322;18.582;2024-02-26T00:51:57;99902.00;;;4.00
69435;BMP180;56625;54.322;18.582;2024-02-26T00:54:25;99896.80;;;4.00
69435;BMP180;56625;54.322;18.582;2024-02-26T00:56:53;99892.20;;;4.02
69435;BMP180;56625;54.322;18.582;2024-02-26T00:59:21;99895.20;;;4.00
69435;BMP180;56625;54.322;18.582;2024-02-26T01:01:49;99893.40;;;4.00
69435;BMP180;56625;54.322;18.582;2024-02-26T01:04:18;99897.80;;;4.00
69435;BMP180;56625;54.322;18.582;2024-02-26T01:06:46;99893.20;;;4.00
69435;BMP180;56625;54.322;18.582;2024-02-26T01:09:15;99891.80;;;4.00
69435;BMP180;56625;54.322;18.582;2024-02-26T01:11:44;99889.60;;;4.10
69435;BMP180;56625;54.322;18.582;2024-02-26T01:14:12;99888.20;;;4.10
69435;BMP180;56625;54.322;18.582;2024-02-26T01:16:40;99880.60;;;4.10
69435;BMP180;56625;54.322;18.582;2024-02-26T01:19:08;99876.80;;;4.10
69435;BMP180;56625;54.322;18.582;2024-02-26T01:21:37;99880.60;;;4.10
69435;BMP180;56625;54.322;18.582;2024-02-26T01:24:05;99885.60;;;4.10
69435;BMP180;56625;54.322;18.582;2024-02-26T01:26:34;99884.20;;;4.10
69435;BMP180;56625;54.322;18.582;2024-02-26T01:29:02;99888.00;;;4.10
69435;BMP180;56625;54.322;18.582;2024-02-26T01:31:31;99884.80;;;4.04
69435;BMP180;56625;54.322;18.582;2024-02-26T01:34:00;99887.20;;;4.00
69435;BMP180;56625;54.322;18.582;2024-02-26T01:36:29;99885.20;;;4.00
69435;BMP180;56625;54.322;18.582;2024-02-26T01:38:57;99885.80;;;3.98
69435;BMP180;56625;54.322;18.582;2024-02-26T01:41:25;99885.60;;;3.90
69435;BMP180;56625;54.322;18.582;2024-02-26T01:43:53;99883.00;;;3.90
69435;BMP180;56625;54.322;18.582;2024-02-26T01:46:22;99884.20;;;3.90
69435;BMP180;56625;54.322;18.582;2024-02-26T01:48:50;99883.60;;;3.80
69435;BMP180;56625;54.322;18.582;2024-02-26T01:51:19;99878.00;;;3.80
69435;BMP180;56625;54.322;18.582;2024-02-26T01:53:48;99882.40;;;3.76
69435;BMP180;56625;54.322;18.582;2024-02-26T01:56:18;99882.80;;;3.70
69435;BMP180;56625;54.322;18.582;2024-02-26T01:58:48;99885.80;;;3.60
69435;BMP180;56625;54.322;18.582;2024-02-26T02:01:20;99878.40;;;3.60
69435;BMP180;56625;54.322;18.582;2024-02-26T02:03:49;99877.80;;;3.58
69435;BMP180;56625;54.322;18.582;2024-02-26T02:06:19;99880.00;;;3.50
69435;BMP180;56625;54.322;18.582;2024-02-26T02:08:48;99883.20;;;3.50
69435;BMP180;56625;54.322;18.582;2024-02-26T02:11:17;99889.80;;;3.40
69435;BMP180;56625;54.322;18.582;2024-02-26T02:13:45;99892.20;;;3.40
69435;BMP180;56625;54.322;18.582;2024-02-26T02:16:14;99889.60;;;3.30
69435;BMP180;56625;54.322;18.582;2024-02-26T02:18:42;99894.60;;;3.30
69435;BMP180;56625;54.322;18.582;2024-02-26T02:21:11;99892.80;;;3.30
69435;BMP180;56625;54.322;18.582;2024-02-26T02:23:39;99894.00;;;3.24
69435;BMP180;56625;54.322;18.582;2024-02-26T02:26:08;99892.40;;;3.20
69435;BMP180;56625;54.322;18.582;2024-02-26T02:28:36;99890.80;;;3.20
69435;BMP180;56625;54.322;18.582;2024-02-26T02:31:05;99895.60;;;3.20
69435;BMP180;56625;54.322;18.582;2024-02-26T02:33:34;99888.80;;;3.20
69435;BMP180;56625;54.322;18.582;2024-02-26T02:36:04;99891.80;;;3.20
69435;BMP180;56625;54.322;18.582;2024-02-26T02:38:37;99891.40;;;3.20
69435;BMP180;56625;54.322;18.582;2024-02-26T02:41:06;99892.20;;;3.20
69435;BMP180;56625;54.322;18.582;2024-02-26T02:43:34;99889.40;;;3.20
69435;BMP180;56625;54.322;18.582;2024-02-26T02:46:02;99889.60;;;3.10
69435;BMP180;56625;54.322;18.582;2024-02-26T02:48:30;99886.20;;;3.10
69435;BMP180;56625;54.322;18.582;2024-02-26T02:50:59;99882.60;;;3.10
69435;BMP180;56625;54.322;18.582;2024-02-26T02:53:27;99882.20;;;3.00
69435;BMP180;56625;54.322;18.582;2024-02-26T02:55:55;99883.40;;;3.00
69435;BMP180;56625;54.322;18.582;2024-02-26T02:58:23;99879.40;;;3.00
69435;BMP180;56625;54.322;18.582;2024-02-26T03:00:52;99883.20;;;3.00
69435;BMP180;56625;54.322;18.582;2024-02-26T03:03:20;99884.20;;;2.90
69435;BMP180;56625;54.322;18.582;2024-02-26T03:05:49;99888.20;;;2.90
69435;BMP180;56625;54.322;18.582;2024-02-26T03:08:17;99891.20;;;2.90
69435;BMP180;56625;54.322;18.582;2024-02-26T03:10:47;99891.40;;;2.80
69435;BMP180;56625;54.322;18.582;2024-02-26T03:13:15;99896.20;;;2.80
69435;BMP180;56625;54.322;18.582;2024-02-26T03:15:43;99901.00;;;2.80
69435;BMP180;56625;54.322;18.582;2024-02-26T03:18:12;99896.60;;;2.80
69435;BMP180;56625;54.322;18.582;2024-02-26T03:20:40;99896.20;;;2.76
69435;BMP180;56625;54.322;18.582;2024-02-26T03:23:09;99902.00;;;2.80
69435;BMP180;56625;54.322;18.582;2024-02-26T03:25:44;99894.20;;;2.80
69435;BMP180;56625;54.322;18.582;2024-02-26T03:28:14;99891.00;;;2.80
69435;BMP180;56625;54.322;18.582;2024-02-26T03:30:42;99888.40;;;2.80
69435;BMP180;56625;54.322;18.582;2024-02-26T03:33:11;99886.80;;;2.80
69435;BMP180;56625;54.322;18.582;2024-02-26T03:35:39;99888.00;;;2.80
69435;BMP180;56625;54.322;18.582;2024-02-26T03:38:07;99887.20;;;2.80
69435;BMP180;56625;54.322;18.582;2024-02-26T03:40:35;99886.60;;;2.80
69435;BMP180;56625;54.322;18.582;2024-02-26T03:43:04;99890.00;;;2.80
69435;BMP180;56625;54.322;18.582;2024-02-26T03:45:35;99883.00;;;2.74
69435;BMP180;56625;54.322;18.582;2024-02-26T03:48:04;99888.40;;;2.72
69435;BMP180;56625;54.322;18.582;2024-02-26T03:50:33;99891.00;;;2.78
69435;BMP180;56625;54.322;18.582;2024-02-26T03:53:02;99887.20;;;2.72
69435;BMP180;56625;54.322;18.582;2024-02-26T03:55:31;99888.40;;;2.72
69435;BMP180;56625;54.322;18.582;2024-02-26T03:57:59;99882.20;;;2.78
69435;BMP180;56625;54.322;18.582;2024-02-26T04:00:27;99880.00;;;2.78
69435;BMP180;56625;54.322;18.582;2024-02-26T04:02:58;99882.80;;;2.70
69435;BMP180;56625;54.322;18.582;2024-02-26T04:05:26;99883.20;;;2.70
69435;BMP180;56625;54.322;18.582;2024-02-26T04:07:54;99885.60;;;2.70
69435;BMP180;56625;54.322;18.582;2024-02-26T04:10:23;99884.20;;;2.70
69435;BMP180;56625;54.322;18.582;2024-02-26T04:12:51;99883.80;;;2.60
69435;BMP180;56625;54.322;18.582;2024-02-26T04:15:19;99887.00;;;2.60
69435;BMP180;56625;54.322;18.582;2024-02-26T04:17:47;99885.80;;;2.50
69435;BMP180;56625;54.322;18.582;2024-02-26T04:20:16;99883.20;;;2.50
69435;BMP180;56625;54.322;18.582;2024-02-26T04:22:45;99888.20;;;2.50
69435;BMP180;56625;54.322;18.582;2024-02-26T04:25:13;99885.40;;;2.50
69435;BMP180;56625;54.322;18.582;2024-02-26T04:27:42;99881.80;;;2.50
69435;BMP180;56625;54.322;18.582;2024-02-26T04:30:10;99882.80;;;2.50
69435;BMP180;56625;54.322;18.582;2024-02-26T04:32:39;99879.80;;;2.50
69435;BMP180;56625;54.322;18.582;2024-02-26T04:35:08;99890.60;;;2.50
69435;BMP180;56625;54.322;18.582;2024-02-26T04:37:37;99890.40;;;2.40
69435;BMP180;56625;54.322;18.582;2024-02-26T04:40:07;99892.60;;;2.40
69435;BMP180;56625;54.322;18.582;2024-02-26T04:42:36;99888.40;;;2.40
69435;BMP180;56625;54.322;18.582;2024-02-26T04:45:04;99890.20;;;2.40
69435;BMP180;56625;54.322;18.582;2024-02-26T04:47:33;99896.40;;;2.40
69435;BMP180;56625;54.322;18.582;2024-02-26T04:50:01;99900.20;;;2.40
69435;BMP180;56625;54.322;18.582;2024-02-26T04:52:30;99901.60;;;2.40
69435;BMP180;56625;54.322;18.582;2024-02-26T04:54:58;99907.00;;;2.32
69435;BMP180;56625;54.322;18.582;2024-02-26T04:57:28;99912.20;;;2.26
69435;BMP180;56625;54.322;18.582;2024-02-26T04:59:56;99923.60;;;2.20
69435;BMP180;56625;54.322;18.582;2024-02-26T05:02:24;99931.60;;;2.20
69435;BMP180;56625;54.322;18.582;2024-02-26T05:04:53;99929.00;;;2.10
69435;BMP180;56625;54.322;18.582;2024-02-26T05:07:22;99931.80;;;2.08
69435;BMP180;56625;54.322;18.582;2024-02-26T05:09:50;99943.20;;;2.00
69435;BMP180;56625;54.322;18.582;2024-02-26T05:12:19;99938.80;;;1.90
69435;BMP180;56625;54.322;18.582;2024-02-26T05:14:47;99940.20;;;1.90
69435;BMP180;56625;54.322;18.582;2024-02-26T05:17:15;99944.40;;;1.90
69435;BMP180;56625;54.322;18.582;2024-02-26T05:19:43;99947.60;;;1.90
69435;BMP180;56625;54.322;18.582;2024-02-26T05:22:11;99945.60;;;1.90
69435;BMP180;56625;54.322;18.582;2024-02-26T05:24:40;99950.80;;;1.90
69435;BMP180;56625;54.322;18.582;2024-02-26T05:27:10;99954.80;;;1.90
69435;BMP180;56625;54.322;18.582;2024-02-26T05:29:38;99958.20;;;1.90
69435;BMP180;56625;54.322;18.582;2024-02-26T05:32:07;99963.40;;;1.92
69435;BMP180;56625;54.322;18.582;2024-02-26T05:34:35;99965.80;;;2.00
69435;BMP180;56625;54.322;18.582;2024-02-26T05:37:03;99966.40;;;2.00
69435;BMP180;56625;54.322;18.582;2024-02-26T05:39:31;99966.00;;;2.00
69435;BMP180;56625;54.322;18.582;2024-02-26T05:42:00;99971.20;;;2.00
69435;BMP180;56625;54.322;18.582;2024-02-26T05:44:28;99972.00;;;2.04
69435;BMP180;56625;54.322;18.582;2024-02-26T05:46:56;99977.20;;;2.08
69435;BMP180;56625;54.322;18.582;2024-02-26T05:49:24;99979.40;;;2.00
69435;BMP180;56625;54.322;18.582;2024-02-26T05:51:53;99986.00;;;2.00
69435;BMP180;56625;54.322;18.582;2024-02-26T05:54:21;99982.20;;;2.00
69435;BMP180;56625;54.322;18.582;2024-02-26T05:56:50;99986.00;;;2.00
69435;BMP180;56625;54.322;18.582;2024-02-26T05:59:18;99981.20;;;1.90
69435;BMP180;56625;54.322;18.582;2024-02-26T06:01:46;99993.20;;;1.90
69435;BMP180;56625;54.322;18.582;2024-02-26T06:04:14;99991.00;;;2.00
69435;BMP180;56625;54.322;18.582;2024-02-26T06:06:44;99988.20;;;2.10
69435;BMP180;56625;54.322;18.582;2024-02-26T06:09:15;99995.20;;;2.20
69435;BMP180;56625;54.322;18.582;2024-02-26T06:11:44;99994.40;;;2.30
69435;BMP180;56625;54.322;18.582;2024-02-26T06:14:12;99994.40;;;2.30
69435;BMP180;56625;54.322;18.582;2024-02-26T06:16:42;99994.60;;;2.40
69435;BMP180;56625;54.322;18.582;2024-02-26T06:19:10;99996.00;;;2.40
69435;BMP180;56625;54.322;18.582;2024-02-26T06:21:41;99999.00;;;2.46
69435;BMP180;56625;54.322;18.582;2024-02-26T06:24:09;100005.60;;;2.50
69435;BMP180;56625;54.322;18.582;2024-02-26T06:26:37;100012.80;;;2.60
69435;BMP180;56625;54.322;18.582;2024-02-26T06:29:05;100007.00;;;2.70
69435;BMP180;56625;54.322;18.582;2024-02-26T06:31:34;100011.40;;;2.72
69435;BMP180;56625;54.322;18.582;2024-02-26T06:34:02;100009.20;;;2.76
69435;BMP180;56625;54.322;18.582;2024-02-26T06:36:31;100010.80;;;2.74
69435;BMP180;56625;54.322;18.582;2024-02-26T06:39:00;100005.80;;;2.80
69435;BMP180;56625;54.322;18.582;2024-02-26T06:41:29;100011.60;;;2.90
69435;BMP180;56625;54.322;18.582;2024-02-26T06:43:57;100009.00;;;2.94
69435;BMP180;56625;54.322;18.582;2024-02-26T06:46:25;100012.40;;;3.00
69435;BMP180;56625;54.322;18.582;2024-02-26T06:48:54;100012.80;;;3.00
69435;BMP180;56625;54.322;18.582;2024-02-26T06:51:23;100015.40;;;3.10
69435;BMP180;56625;54.322;18.582;2024-02-26T06:53:52;100013.20;;;3.20
69435;BMP180;56625;54.322;18.582;2024-02-26T06:56:20;100006.60;;;3.30
69435;BMP180;56625;54.322;18.582;2024-02-26T06:58:48;100006.00;;;3.40
69435;BMP180;56625;54.322;18.582;2024-02-26T07:01:17;100009.60;;;3.50
69435;BMP180;56625;54.322;18.582;2024-02-26T07:03:46;100008.80;;;3.54
69435;BMP180;56625;54.322;18.582;2024-02-26T07:06:14;100011.20;;;3.70
69435;BMP180;56625;54.322;18.582;2024-02-26T07:08:43;100017.00;;;3.80
69435;BMP180;56625;54.322;18.582;2024-02-26T07:11:11;100020.40;;;3.90
69435;BMP180;56625;54.322;18.582;2024-02-26T07:13:40;100021.20;;;4.06
69435;BMP180;56625;54.322;18.582;2024-02-26T07:16:09;100020.20;;;4.20
69435;BMP180;56625;54.322;18.582;2024-02-26T07:18:41;100023.40;;;4.40
69435;BMP180;56625;54.322;18.582;2024-02-26T07:21:12;100027.80;;;4.50
69435;BMP180;56625;54.322;18.582;2024-02-26T07:23:41;100026.60;;;4.68
69435;BMP180;56625;54.322;18.582;2024-02-26T07:26:09;100029.20;;;4.80
69435;BMP180;56625;54.322;18.582;2024-02-26T07:28:40;100020.20;;;4.90
69435;BMP180;56625;54.322;18.582;2024-02-26T07:31:08;100020.00;;;5.10
69435;BMP180;56625;54.322;18.582;2024-02-26T07:33:36;100022.80;;;5.30
69435;BMP180;56625;54.322;18.582;2024-02-26T07:36:05;100026.40;;;5.50
69435;BMP180;56625;54.322;18.582;2024-02-26T07:38:33;100017.00;;;6.48
69435;BMP180;56625;54.322;18.582;2024-02-26T07:41:11;100020.00;;;7.84
69435;BMP180;56625;54.322;18.582;2024-02-26T07:43:40;100019.40;;;8.00
69435;BMP180;56625;54.322;18.582;2024-02-26T07:46:12;100019.00;;;7.90
69435;BMP180;56625;54.322;18.582;2024-02-26T07:48:41;100018.40;;;7.80
69435;BMP180;56625;54.322;18.582;2024-02-26T07:51:13;100018.40;;;7.70
69435;BMP180;56625;54.322;18.582;2024-02-26T07:53:42;100023.40;;;7.60
69435;BMP180;56625;54.322;18.582;2024-02-26T07:56:11;100025.00;;;7.60
69435;BMP180;56625;54.322;18.582;2024-02-26T07:58:39;100026.40;;;7.62
69435;BMP180;56625;54.322;18.582;2024-02-26T08:01:07;100027.40;;;7.80
69435;BMP180;56625;54.322;18.582;2024-02-26T08:03:37;100030.20;;;8.00
69435;BMP180;56625;54.322;18.582;2024-02-26T08:06:06;100026.60;;;8.20
69435;BMP180;56625;54.322;18.582;2024-02-26T08:08:36;100030.20;;;8.40
69435;BMP180;56625;54.322;18.582;2024-02-26T08:11:04;100035.80;;;8.60
69435;BMP180;56625;54.322;18.582;2024-02-26T08:13:32;100033.60;;;8.74
69435;BMP180;56625;54.322;18.582;2024-02-26T08:16:01;100036.00;;;9.00
69435;BMP180;56625;54.322;18.582;2024-02-26T08:18:29;100036.20;;;9.30
69435;BMP180;56625;54.322;18.582;2024-02-26T08:20:58;100036.60;;;9.44
69435;BMP180;56625;54.322;18.582;2024-02-26T08:23:26;100032.80;;;9.60
69435;BMP180;56625;54.322;18.582;2024-02-26T08:25:54;100038.80;;;9.70
69435;BMP180;56625;54.322;18.582;2024-02-26T08:28:22;100040.80;;;9.82
69435;BMP180;56625;54.322;18.582;2024-02-26T08:30:51;100046.40;;;9.90
69435;BMP180;56625;54.322;18.582;2024-02-26T08:33:19;100040.80;;;10.10
69435;BMP180;56625;54.322;18.582;2024-02-26T08:35:47;100045.40;;;10.30
69435;BMP180;56625;54.322;18.582;2024-02-26T08:38:16;100043.80;;;10.60
69435;BMP180;56625;54.322;18.582;2024-02-26T08:40:44;100047.40;;;10.78
69435;BMP180;56625;54.322;18.582;2024-02-26T08:43:12;100046.60;;;11.00
69435;BMP180;56625;54.322;18.582;2024-02-26T08:45:40;100049.00;;;11.10
69435;BMP180;56625;54.322;18.582;2024-02-26T08:48:08;100054.80;;;11.20
69435;BMP180;56625;54.322;18.582;2024-02-26T08:50:37;100053.60;;;11.32
69435;BMP180;56625;54.322;18.582;2024-02-26T08:53:05;100056.80;;;11.50
69435;BMP180;56625;54.322;18.582;2024-02-26T08:55:35;100055.00;;;11.50
69435;BMP180;56625;54.322;18.582;2024-02-26T08:58:03;100055.20;;;11.40
69435;BMP180;56625;54.322;18.582;2024-02-26T09:00:32;100056.60;;;11.50
69435;BMP180;56625;54.322;18.582;2024-02-26T09:03:00;100053.60;;;11.50
69435;BMP180;56625;54.322;18.582;2024-02-26T09:05:33;100054.20;;;11.40
69435;BMP180;56625;54.322;18.582;2024-02-26T09:08:02;100059.20;;;11.34
69435;BMP180;56625;54.322;18.582;2024-02-26T09:10:30;100058.60;;;11.44
69435;BMP180;56625;54.322;18.582;2024-02-26T09:13:00;100060.80;;;11.70
69435;BMP180;56625;54.322;18.582;2024-02-26T09:15:28;100065.00;;;11.90
69435;BMP180;56625;54.322;18.582;2024-02-26T09:17:57;100066.20;;;12.10
69435;BMP180;56625;54.322;18.582;2024-02-26T09:20:25;100071.80;;;12.30
69435;BMP180;56625;54.322;18.582;2024-02-26T09:22:54;100070.60;;;12.50
69435;BMP180;56625;54.322;18.582;2024-02-26T09:25:22;100076.40;;;12.70
69435;BMP180;56625;54.322;18.582;2024-02-26T09:27:52;100073.60;;;12.90
69435;BMP180;56625;54.322;18.582;2024-02-26T09:30:20;100074.60;;;12.92
69435;BMP180;56625;54.322;18.582;2024-02-26T09:32:48;100083.40;;;12.90
69435;BMP180;56625;54.322;18.582;2024-02-26T09:35:17;100081.40;;;12.90
69435;BMP180;56625;54.322;18.582;2024-02-26T09:37:45;100085.20;;;13.00
69435;BMP180;56625;54.322;18.582;2024-02-26T09:40:13;100081.40;;;13.20
69435;BMP180;56625;54.322;18.582;2024-02-26T09:42:45;100086.40;;;13.20
69435;BMP180;56625;54.322;18.582;2024-02-26T09:45:22;100086.20;;;13.20
69435;BMP180;56625;54.322;18.582;2024-02-26T09:47:56;100088.60;;;13.16
69435;BMP180;56625;54.322;18.582;2024-02-26T09:50:24;100089.60;;;13.10
69435;BMP180;56625;54.322;18.582;2024-02-26T09:52:54;100092.20;;;13.00
69435;BMP180;56625;54.322;18.582;2024-02-26T09:55:25;100093.40;;;12.90
69435;BMP180;56625;54.322;18.582;2024-02-26T09:57:55;100095.40;;;12.94
69435;BMP180;56625;54.322;18.582;2024-02-26T10:00:27;100104.80;;;13.00
69435;BMP180;56625;54.322;18.582;2024-02-26T10:03:05;100105.40;;;12.96
69435;BMP180;56625;54.322;18.582;2024-02-26T10:05:36;100103.00;;;12.90
69435;BMP180;56625;54.322;18.582;2024-02-26T10:08:06;100099.60;;;12.90
69435;BMP180;56625;54.322;18.582;2024-02-26T10:10:38;100103.40;;;13.00
69435;BMP180;56625;54.322;18.582;2024-02-26T10:13:08;100101.40;;;13.06
69435;BMP180;56625;54.322;18.582;2024-02-26T10:15:38;100106.20;;;13.10
69435;BMP180;56625;54.322;18.582;2024-02-26T10:18:06;100102.20;;;13.10
69435;BMP180;56625;54.322;18.582;2024-02-26T10:20:35;100101.00;;;13.10
69435;BMP180;56625;54.322;18.582;2024-02-26T10:23:04;100102.40;;;13.00
69435;BMP180;56625;54.322;18.582;2024-02-26T10:25:33;100104.80;;;13.00
69435;BMP180;56625;54.322;18.582;2024-02-26T10:28:02;100106.00;;;13.00
69435;BMP180;56625;54.322;18.582;2024-02-26T10:30:30;100111.80;;;13.22
69435;BMP180;56625;54.322;18.582;2024-02-26T10:32:59;100109.80;;;13.50
69435;BMP180;56625;54.322;18.582;2024-02-26T10:35:30;100108.20;;;14.12
69435;BMP180;56625;54.322;18.582;2024-02-26T10:38:00;100108.00;;;14.50
69435;BMP180;56625;54.322;18.582;2024-02-26T10:40:28;100105.80;;;14.20
69435;BMP180;56625;54.322;18.582;2024-02-26T10:42:58;100102.60;;;13.90
69435;BMP180;56625;54.322;18.582;2024-02-26T10:45:26;100110.20;;;13.70
69435;BMP180;56625;54.322;18.582;2024-02-26T10:47:55;100107.80;;;13.60
69435;BMP180;56625;54.322;18.582;2024-02-26T10:50:24;100110.80;;;13.50
69435;BMP180;56625;54.322;18.582;2024-02-26T10:52:55;100111.40;;;13.40
69435;BMP180;56625;54.322;18.582;2024-02-26T10:55:24;100115.20;;;13.42
69435;BMP180;56625;54.322;18.582;2024-02-26T10:57:52;100118.60;;;13.30
69435;BMP180;56625;54.322;18.582;2024-02-26T11:00:22;100122.20;;;13.22
69435;BMP180;56625;54.322;18.582;2024-02-26T11:02:53;100122.80;;;13.20
69435;BMP180;56625;54.322;18.582;2024-02-26T11:05:22;100128.60;;;13.20
69435;BMP180;56625;54.322;18.582;2024-02-26T11:07:52;100125.60;;;13.10
69435;BMP180;56625;54.322;18.582;2024-02-26T11:10:22;100127.80;;;12.94
69435;BMP180;56625;54.322;18.582;2024-02-26T11:12:52;100129.20;;;12.90
69435;BMP180;56625;54.322;18.582;2024-02-26T11:15:22;100124.80;;;12.90
69435;BMP180;56625;54.322;18.582;2024-02-26T11:17:53;100125.60;;;13.00
69435;BMP180;56625;54.322;18.582;2024-02-26T11:20:23;100128.20;;;12.90
69435;BMP180;56625;54.322;18.582;2024-02-26T11:22:51;100126.20;;;12.96
69435;BMP180;56625;54.322;18.582;2024-02-26T11:25:19;100130.00;;;12.90
69435;BMP180;56625;54.322;18.582;2024-02-26T11:27:56;100128.20;;;12.90
69435;BMP180;56625;54.322;18.582;2024-02-26T11:30:31;100132.00;;;12.90
69435;BMP180;56625;54.322;18.582;2024-02-26T11:33:00;100132.00;;;12.90
69435;BMP180;56625;54.322;18.582;2024-02-26T11:35:36;100130.80;;;12.86
69435;BMP180;56625;54.322;18.582;2024-02-26T11:38:06;100132.80;;;12.90
69435;BMP180;56625;54.322;18.582;2024-02-26T11:40:38;100139.40;;;12.90
69435;BMP180;56625;54.322;18.582;2024-02-26T11:43:10;100138.40;;;12.90
69435;BMP180;56625;54.322;18.582;2024-02-26T11:48:24;100141.20;;;12.82
69435;BMP180;56625;54.322;18.582;2024-02-26T11:50:55;100141.20;;;12.80
69435;BMP180;56625;54.322;18.582;2024-02-26T11:53:31;100147.00;;;12.80
69435;BMP180;56625;54.322;18.582;2024-02-26T11:56:20;100147.80;;;12.80
69435;BMP180;56625;54.322;18.582;2024-02-26T11:59:04;100156.20;;;12.90
69435;BMP180;56625;54.322;18.582;2024-02-26T12:01:39;100157.60;;;12.80
69435;BMP180;56625;54.322;18.582;2024-02-26T12:06:57;100156.60;;;12.60
69435;BMP180;56625;54.322;18.582;2024-02-26T12:09:42;100153.80;;;12.50
69435;BMP180;56625;54.322;18.582;2024-02-26T12:12:18;100158.20;;;12.40
69435;BMP180;56625;54.322;18.582;2024-02-26T12:14:53;100154.20;;;12.30
69435;BMP180;56625;54.322;18.582;2024-02-26T12:17:24;100159.80;;;12.30
69435;BMP180;56625;54.322;18.582;2024-02-26T12:19:52;100155.80;;;12.30
69435;BMP180;56625;54.322;18.582;2024-02-26T12:22:23;100163.20;;;12.30
69435;BMP180;56625;54.322;18.582;2024-02-26T12:24:59;100160.60;;;12.30
69435;BMP180;56625;54.322;18.582;2024-02-26T12:27:29;100158.20;;;12.28
69435;BMP180;56625;54.322;18.582;2024-02-26T12:29:57;100158.00;;;12.28
69435;BMP180;56625;54.322;18.582;2024-02-26T12:32:26;100159.40;;;12.30
69435;BMP180;56625;54.322;18.582;2024-02-26T12:34:54;100156.60;;;12.30
69435;BMP180;56625;54.322;18.582;2024-02-26T12:37:23;100160.00;;;12.30
69435;BMP180;56625;54.322;18.582;2024-02-26T12:39:51;100166.20;;;12.20
69435;BMP180;56625;54.322;18.582;2024-02-26T12:42:19;100169.40;;;12.10
69435;BMP180;56625;54.322;18.582;2024-02-26T12:44:50;100171.60;;;12.10
69435;BMP180;56625;54.322;18.582;2024-02-26T12:47:19;100181.20;;;12.02
69435;BMP180;56625;54.322;18.582;2024-02-26T12:49:48;100178.60;;;12.00
69435;BMP180;56625;54.322;18.582;2024-02-26T12:52:17;100184.00;;;12.10
69435;BMP180;56625;54.322;18.582;2024-02-26T12:54:45;100189.20;;;12.10
69435;BMP180;56625;54.322;18.582;2024-02-26T12:57:14;100193.00;;;12.02
69435;BMP180;56625;54.322;18.582;2024-02-26T12:59:43;100194.80;;;11.90
69435;BMP180;56625;54.322;18.582;2024-02-26T13:02:11;100199.00;;;11.80
69435;BMP180;56625;54.322;18.582;2024-02-26T13:04:40;100198.60;;;11.70
69435;BMP180;56625;54.322;18.582;2024-02-26T13:07:09;100204.60;;;11.70
69435;BMP180;56625;54.322;18.582;2024-02-26T13:09:38;100204.60;;;11.78
69435;BMP180;56625;54.322;18.582;2024-02-26T13:12:07;100204.80;;;11.80
69435;BMP180;56625;54.322;18.582;2024-02-26T13:14:36;100212.60;;;11.70
69435;BMP180;56625;54.322;18.582;2024-02-26T13:17:05;100209.40;;;11.70
69435;BMP180;56625;54.322;18.582;2024-02-26T13:19:33;100210.40;;;11.60
69435;BMP180;56625;54.322;18.582;2024-02-26T13:22:07;100211.00;;;11.50
69435;BMP180;56625;54.322;18.582;2024-02-26T13:24:36;100208.20;;;11.40
69435;BMP180;56625;54.322;18.582;2024-02-26T13:27:07;100207.20;;;11.42
69435;BMP180;56625;54.322;18.582;2024-02-26T13:29:35;100206.20;;;11.40
69435;BMP180;56625;54.322;18.582;2024-02-26T13:32:04;100208.40;;;11.30
69435;BMP180;56625;54.322;18.582;2024-02-26T13:34:33;100214.20;;;11.30
69435;BMP180;56625;54.322;18.582;2024-02-26T13:37:02;100212.80;;;11.22
69435;BMP180;56625;54.322;18.582;2024-02-26T13:39:31;100212.20;;;11.20
69435;BMP180;56625;54.322;18.582;2024-02-26T13:41:59;100215.60;;;11.10
69435;BMP180;56625;54.322;18.582;2024-02-26T13:44:28;100220.40;;;11.06
69435;BMP180;56625;54.322;18.582;2024-02-26T13:46:56;100221.20;;;11.00
69435;BMP180;56625;54.322;18.582;2024-02-26T13:49:24;100221.80;;;11.00
69435;BMP180;56625;54.322;18.582;2024-02-26T13:51:52;100221.20;;;10.88
69435;BMP180;56625;54.322;18.582;2024-02-26T13:54:20;100227.80;;;10.80
69435;BMP180;56625;54.322;18.582;2024-02-26T13:56:49;100222.60;;;10.80
69435;BMP180;56625;54.322;18.582;2024-02-26T13:59:18;100219.00;;;10.70
69435;BMP180;56625;54.322;18.582;2024-02-26T14:01:46;100223.20;;;10.64
69435;BMP180;56625;54.322;18.582;2024-02-26T14:04:14;100231.40;;;10.52
69435;BMP180;56625;54.322;18.582;2024-02-26T14:06:45;100227.20;;;10.50
69435;BMP180;56625;54.322;18.582;2024-02-26T14:09:13;100230.80;;;10.50
69435;BMP180;56625;54.322;18.582;2024-02-26T14:11:47;100227.00;;;10.48
69435;BMP180;56625;54.322;18.582;2024-02-26T14:14:15;100227.60;;;10.40